This is the latest recevied weather packets stored in our database for station/object K7SKM. If no packets are shown the sender has not sent any weather packets the latest 10 day(s).
| Time | Temp. | Humidity | Pressure | Rain* | Wind** | Luminosity | Snow |
|---|---|---|---|---|---|---|---|
| 1787591377 | 19.44° C | 70% | 1022.9 hPa | 0 mm | - | 229 W/m² | - |
| 1787591072 | 18.89° C | 72% | 1022.8 hPa | 0 mm | - | 223 W/m² | - |
| 1787590767 | 18.33° C | 73% | 1023 hPa | 0 mm | - | 217 W/m² | - |
| 1787590463 | 18.33° C | 73% | 1023 hPa | 0 mm | - | 211 W/m² | - |
| 1787590158 | 18.33° C | 74% | 1022.9 hPa | 0 mm | - | 191 W/m² | - |
| 1787589853 | 17.78° C | 75% | 1023.2 hPa | 0 mm | - | 199 W/m² | - |
| 1787589549 | 17.22° C | 76% | 1023.2 hPa | 0 mm | - | 209 W/m² | - |
| 1787589244 | 17.22° C | 76% | 1023.1 hPa | 0 mm | - | 186 W/m² | - |
| 1787588939 | 17.22° C | 76% | 1023.2 hPa | 0 mm | - | 200 W/m² | - |
| 1787588635 | 17.78° C | 77% | 1023.5 hPa | 0 mm | - | 208 W/m² | - |
| 1787588330 | 16.67° C | 80% | 1023.4 hPa | 0 mm | - | 178 W/m² | - |
| 1787588026 | 16.11° C | 80% | 1023.2 hPa | 0 mm | - | 98 W/m² | - |
| 1787587721 | 16.11° C | 80% | 1023.3 hPa | 0 mm | - | 103 W/m² | - |
| 1787587416 | 16.11° C | 80% | 1023.4 hPa | 0 mm | - | 92 W/m² | - |
| 1787587116 | 16.11° C | 80% | 1023.3 hPa | 0 mm | - | 69 W/m² | - |
| 1787586815 | 16.67° C | 81% | 1023.4 hPa | 0 mm | - | 95 W/m² | - |
| 1787586505 | 16.11° C | 82% | 1023.4 hPa | 0 mm | - | 106 W/m² | - |
| 1787586200 | 15.56° C | 81% | 1023.5 hPa | 0 mm | - | 90 W/m² | - |
| 1787585897 | 15° C | 81% | 1023.5 hPa | 0 mm | - | 96 W/m² | - |
| 1787585596 | 15° C | 82% | 1023.5 hPa | 0 mm | - | 79 W/m² | - |
| 1787585292 | 14.44° C | 83% | 1023.4 hPa | 0 mm | - | 74 W/m² | - |
| 1787584992 | 14.44° C | 83% | 1023.5 hPa | 0 mm | - | 64 W/m² | - |
| 1787584687 | 14.44° C | 85% | 1023.6 hPa | 0 mm | - | 61 W/m² | - |
| 1787584384 | 13.89° C | 84% | 1023.4 hPa | 0 mm | - | 56 W/m² | - |
| 1787584079 | 13.89° C | 85% | 1023.4 hPa | 0 mm | - | 45 W/m² | - |
* Rain latest hour (hover to see other rain measurements)
** Current wind speed in m/s (hover to see current wind gust speed)